sensor_id;sensor_type;location;lat;lon;timestamp;P1;durP1;ratioP1;P2;durP2;ratioP2
46745;SDS011;32493;50.514;9.678;2024-03-22T00:02:00;10.17;;;6.07;;
46745;SDS011;32493;50.514;9.678;2024-03-22T00:04:26;10.25;;;6.05;;
46745;SDS011;32493;50.514;9.678;2024-03-22T00:06:52;9.47;;;5.80;;
46745;SDS011;32493;50.514;9.678;2024-03-22T00:09:18;11.68;;;6.13;;
46745;SDS011;32493;50.514;9.678;2024-03-22T00:11:45;13.35;;;6.38;;
46745;SDS011;32493;50.514;9.678;2024-03-22T00:14:14;11.40;;;6.77;;
46745;SDS011;32493;50.514;9.678;2024-03-22T00:16:40;11.40;;;6.80;;
46745;SDS011;32493;50.514;9.678;2024-03-22T00:19:08;12.40;;;6.97;;
46745;SDS011;32493;50.514;9.678;2024-03-22T00:21:38;12.57;;;6.45;;
46745;SDS011;32493;50.514;9.678;2024-03-22T00:24:09;14.00;;;6.35;;
46745;SDS011;32493;50.514;9.678;2024-03-22T00:26:37;11.30;;;6.40;;
46745;SDS011;32493;50.514;9.678;2024-03-22T00:29:05;12.90;;;6.50;;
46745;SDS011;32493;50.514;9.678;2024-03-22T00:31:36;13.73;;;7.22;;
46745;SDS011;32493;50.514;9.678;2024-03-22T00:34:03;11.25;;;6.65;;
46745;SDS011;32493;50.514;9.678;2024-03-22T00:36:33;11.90;;;6.22;;
46745;SDS011;32493;50.514;9.678;2024-03-22T00:39:01;12.75;;;6.15;;
46745;SDS011;32493;50.514;9.678;2024-03-22T00:43:54;9.77;;;5.50;;
46745;SDS011;32493;50.514;9.678;2024-03-22T00:46:23;10.15;;;5.55;;
46745;SDS011;32493;50.514;9.678;2024-03-22T00:51:19;9.55;;;5.45;;
46745;SDS011;32493;50.514;9.678;2024-03-22T00:53:50;9.70;;;6.13;;
46745;SDS011;32493;50.514;9.678;2024-03-22T00:56:19;10.32;;;6.05;;
46745;SDS011;32493;50.514;9.678;2024-03-22T00:58:48;11.30;;;6.53;;
46745;SDS011;32493;50.514;9.678;2024-03-22T01:01:16;13.43;;;6.13;;
46745;SDS011;32493;50.514;9.678;2024-03-22T01:03:43;9.50;;;5.90;;
46745;SDS011;32493;50.514;9.678;2024-03-22T01:06:13;8.07;;;5.25;;
46745;SDS011;32493;50.514;9.678;2024-03-22T01:08:40;12.45;;;6.50;;
46745;SDS011;32493;50.514;9.678;2024-03-22T01:11:09;12.23;;;7.10;;
46745;SDS011;32493;50.514;9.678;2024-03-22T01:13:35;14.13;;;7.13;;
46745;SDS011;32493;50.514;9.678;2024-03-22T01:16:02;14.13;;;7.15;;
46745;SDS011;32493;50.514;9.678;2024-03-22T01:18:33;12.70;;;6.88;;
46745;SDS011;32493;50.514;9.678;2024-03-22T01:21:01;17.98;;;7.25;;
46745;SDS011;32493;50.514;9.678;2024-03-22T01:23:31;15.63;;;7.45;;
46745;SDS011;32493;50.514;9.678;2024-03-22T01:25:58;13.48;;;7.63;;
46745;SDS011;32493;50.514;9.678;2024-03-22T01:28:27;13.85;;;6.63;;
46745;SDS011;32493;50.514;9.678;2024-03-22T01:30:56;12.85;;;6.57;;
46745;SDS011;32493;50.514;9.678;2024-03-22T01:33:23;12.80;;;7.00;;
46745;SDS011;32493;50.514;9.678;2024-03-22T01:35:52;11.65;;;6.97;;
46745;SDS011;32493;50.514;9.678;2024-03-22T01:38:20;13.57;;;6.82;;
46745;SDS011;32493;50.514;9.678;2024-03-22T01:40:52;16.90;;;7.20;;
46745;SDS011;32493;50.514;9.678;2024-03-22T01:43:22;11.95;;;6.80;;
46745;SDS011;32493;50.514;9.678;2024-03-22T01:45:48;13.68;;;7.03;;
46745;SDS011;32493;50.514;9.678;2024-03-22T01:48:14;12.35;;;7.45;;
46745;SDS011;32493;50.514;9.678;2024-03-22T01:50:41;16.08;;;7.88;;
46745;SDS011;32493;50.514;9.678;2024-03-22T01:53:09;13.57;;;7.65;;
46745;SDS011;32493;50.514;9.678;2024-03-22T01:55:36;17.85;;;7.97;;
46745;SDS011;32493;50.514;9.678;2024-03-22T01:58:09;13.43;;;7.63;;
46745;SDS011;32493;50.514;9.678;2024-03-22T02:00:36;17.90;;;9.10;;
46745;SDS011;32493;50.514;9.678;2024-03-22T02:03:04;15.70;;;8.02;;
46745;SDS011;32493;50.514;9.678;2024-03-22T02:05:30;16.02;;;8.13;;
46745;SDS011;32493;50.514;9.678;2024-03-22T02:07:58;14.93;;;7.95;;
46745;SDS011;32493;50.514;9.678;2024-03-22T02:10:25;15.48;;;8.00;;
46745;SDS011;32493;50.514;9.678;2024-03-22T02:12:52;17.73;;;8.73;;
46745;SDS011;32493;50.514;9.678;2024-03-22T02:15:23;13.98;;;7.55;;
46745;SDS011;32493;50.514;9.678;2024-03-22T02:17:50;13.85;;;7.55;;
46745;SDS011;32493;50.514;9.678;2024-03-22T02:20:19;16.75;;;8.13;;
46745;SDS011;32493;50.514;9.678;2024-03-22T02:22:47;19.55;;;8.35;;
46745;SDS011;32493;50.514;9.678;2024-03-22T02:25:18;13.73;;;6.95;;
46745;SDS011;32493;50.514;9.678;2024-03-22T02:27:44;15.02;;;7.88;;
46745;SDS011;32493;50.514;9.678;2024-03-22T02:30:13;14.68;;;7.55;;
46745;SDS011;32493;50.514;9.678;2024-03-22T02:32:41;17.58;;;7.18;;
46745;SDS011;32493;50.514;9.678;2024-03-22T02:37:35;13.10;;;6.75;;
46745;SDS011;32493;50.514;9.678;2024-03-22T02:40:02;17.30;;;7.63;;
46745;SDS011;32493;50.514;9.678;2024-03-22T02:42:32;15.52;;;7.93;;
46745;SDS011;32493;50.514;9.678;2024-03-22T02:45:00;16.15;;;8.45;;
46745;SDS011;32493;50.514;9.678;2024-03-22T02:47:29;15.95;;;7.95;;
46745;SDS011;32493;50.514;9.678;2024-03-22T02:49:57;16.60;;;7.85;;
46745;SDS011;32493;50.514;9.678;2024-03-22T02:52:26;17.73;;;7.60;;
46745;SDS011;32493;50.514;9.678;2024-03-22T02:54:59;15.88;;;7.70;;
46745;SDS011;32493;50.514;9.678;2024-03-22T02:57:28;14.98;;;7.95;;
46745;SDS011;32493;50.514;9.678;2024-03-22T03:00:03;11.40;;;7.22;;
46745;SDS011;32493;50.514;9.678;2024-03-22T03:02:33;12.50;;;6.50;;
46745;SDS011;32493;50.514;9.678;2024-03-22T03:05:02;13.75;;;7.20;;
46745;SDS011;32493;50.514;9.678;2024-03-22T03:07:29;11.45;;;6.72;;
46745;SDS011;32493;50.514;9.678;2024-03-22T03:09:59;15.32;;;7.50;;
46745;SDS011;32493;50.514;9.678;2024-03-22T03:12:26;13.63;;;7.43;;
46745;SDS011;32493;50.514;9.678;2024-03-22T03:14:53;16.02;;;7.35;;
46745;SDS011;32493;50.514;9.678;2024-03-22T03:17:23;13.95;;;6.90;;
46745;SDS011;32493;50.514;9.678;2024-03-22T03:19:50;16.63;;;6.90;;
46745;SDS011;32493;50.514;9.678;2024-03-22T03:22:18;16.65;;;7.97;;
46745;SDS011;32493;50.514;9.678;2024-03-22T03:24:44;17.25;;;8.43;;
46745;SDS011;32493;50.514;9.678;2024-03-22T03:27:12;16.23;;;7.50;;
46745;SDS011;32493;50.514;9.678;2024-03-22T03:29:42;14.45;;;6.88;;
46745;SDS011;32493;50.514;9.678;2024-03-22T03:32:10;14.02;;;6.80;;
46745;SDS011;32493;50.514;9.678;2024-03-22T03:34:41;14.05;;;7.20;;
46745;SDS011;32493;50.514;9.678;2024-03-22T03:37:07;14.40;;;6.88;;
46745;SDS011;32493;50.514;9.678;2024-03-22T03:39:39;12.63;;;6.78;;
46745;SDS011;32493;50.514;9.678;2024-03-22T03:42:08;15.00;;;7.32;;
46745;SDS011;32493;50.514;9.678;2024-03-22T03:44:40;13.98;;;7.03;;
46745;SDS011;32493;50.514;9.678;2024-03-22T03:47:11;19.10;;;7.18;;
46745;SDS011;32493;50.514;9.678;2024-03-22T03:49:44;13.27;;;7.35;;
46745;SDS011;32493;50.514;9.678;2024-03-22T03:52:11;16.45;;;7.75;;
46745;SDS011;32493;50.514;9.678;2024-03-22T03:54:37;18.95;;;8.18;;
46745;SDS011;32493;50.514;9.678;2024-03-22T03:57:04;18.25;;;8.43;;
46745;SDS011;32493;50.514;9.678;2024-03-22T03:59:33;18.50;;;8.63;;
46745;SDS011;32493;50.514;9.678;2024-03-22T04:02:04;17.48;;;9.20;;
46745;SDS011;32493;50.514;9.678;2024-03-22T04:04:33;16.52;;;7.53;;
46745;SDS011;32493;50.514;9.678;2024-03-22T04:07:05;15.65;;;7.78;;
46745;SDS011;32493;50.514;9.678;2024-03-22T04:09:33;15.23;;;7.70;;
46745;SDS011;32493;50.514;9.678;2024-03-22T04:12:00;16.17;;;8.32;;
46745;SDS011;32493;50.514;9.678;2024-03-22T04:14:27;19.80;;;9.07;;
46745;SDS011;32493;50.514;9.678;2024-03-22T04:16:55;19.15;;;8.68;;
46745;SDS011;32493;50.514;9.678;2024-03-22T04:19:25;19.63;;;9.02;;
46745;SDS011;32493;50.514;9.678;2024-03-22T04:21:53;16.50;;;8.32;;
46745;SDS011;32493;50.514;9.678;2024-03-22T04:24:24;22.38;;;9.43;;
46745;SDS011;32493;50.514;9.678;2024-03-22T04:26:50;25.70;;;9.90;;
46745;SDS011;32493;50.514;9.678;2024-03-22T04:29:21;26.77;;;11.93;;
46745;SDS011;32493;50.514;9.678;2024-03-22T04:31:49;26.52;;;10.70;;
46745;SDS011;32493;50.514;9.678;2024-03-22T04:34:17;21.73;;;9.10;;
46745;SDS011;32493;50.514;9.678;2024-03-22T04:36:45;22.13;;;10.23;;
46745;SDS011;32493;50.514;9.678;2024-03-22T04:39:11;22.33;;;9.98;;
46745;SDS011;32493;50.514;9.678;2024-03-22T04:41:41;22.77;;;10.18;;
46745;SDS011;32493;50.514;9.678;2024-03-22T04:44:08;21.40;;;10.07;;
46745;SDS011;32493;50.514;9.678;2024-03-22T04:46:35;24.63;;;10.57;;
46745;SDS011;32493;50.514;9.678;2024-03-22T04:49:03;22.73;;;10.60;;
46745;SDS011;32493;50.514;9.678;2024-03-22T04:51:29;32.63;;;11.98;;
46745;SDS011;32493;50.514;9.678;2024-03-22T04:54:01;24.08;;;10.98;;
46745;SDS011;32493;50.514;9.678;2024-03-22T04:56:29;24.17;;;10.38;;
46745;SDS011;32493;50.514;9.678;2024-03-22T04:58:59;22.48;;;10.27;;
46745;SDS011;32493;50.514;9.678;2024-03-22T05:01:25;22.58;;;10.38;;
46745;SDS011;32493;50.514;9.678;2024-03-22T05:03:53;23.17;;;10.95;;
46745;SDS011;32493;50.514;9.678;2024-03-22T05:06:20;26.20;;;11.60;;
46745;SDS011;32493;50.514;9.678;2024-03-22T05:08:47;25.35;;;11.88;;
46745;SDS011;32493;50.514;9.678;2024-03-22T05:11:16;29.70;;;12.85;;
46745;SDS011;32493;50.514;9.678;2024-03-22T05:13:45;32.10;;;13.68;;
46745;SDS011;32493;50.514;9.678;2024-03-22T05:16:15;36.55;;;13.82;;
46745;SDS011;32493;50.514;9.678;2024-03-22T05:18:44;34.70;;;13.43;;
46745;SDS011;32493;50.514;9.678;2024-03-22T05:21:13;32.67;;;14.15;;
46745;SDS011;32493;50.514;9.678;2024-03-22T05:23:42;32.00;;;14.13;;
46745;SDS011;32493;50.514;9.678;2024-03-22T05:26:08;40.22;;;15.38;;
46745;SDS011;32493;50.514;9.678;2024-03-22T05:28:40;39.50;;;16.08;;
46745;SDS011;32493;50.514;9.678;2024-03-22T05:31:09;36.25;;;15.38;;
46745;SDS011;32493;50.514;9.678;2024-03-22T05:33:38;44.63;;;16.52;;
46745;SDS011;32493;50.514;9.678;2024-03-22T05:36:06;29.65;;;13.52;;
46745;SDS011;32493;50.514;9.678;2024-03-22T05:38:32;26.30;;;12.05;;
46745;SDS011;32493;50.514;9.678;2024-03-22T05:41:03;23.35;;;12.40;;
46745;SDS011;32493;50.514;9.678;2024-03-22T05:43:32;25.90;;;11.95;;
46745;SDS011;32493;50.514;9.678;2024-03-22T05:46:04;30.40;;;13.30;;
46745;SDS011;32493;50.514;9.678;2024-03-22T05:48:34;27.70;;;13.07;;
46745;SDS011;32493;50.514;9.678;2024-03-22T05:51:05;31.65;;;13.35;;
46745;SDS011;32493;50.514;9.678;2024-03-22T05:53:36;28.98;;;13.88;;
46745;SDS011;32493;50.514;9.678;2024-03-22T05:56:05;33.97;;;14.98;;
46745;SDS011;32493;50.514;9.678;2024-03-22T05:58:32;33.25;;;15.40;;
46745;SDS011;32493;50.514;9.678;2024-03-22T06:01:00;35.78;;;16.73;;
46745;SDS011;32493;50.514;9.678;2024-03-22T06:03:26;40.28;;;17.65;;
46745;SDS011;32493;50.514;9.678;2024-03-22T06:05:54;43.15;;;18.33;;
46745;SDS011;32493;50.514;9.678;2024-03-22T06:08:23;40.83;;;17.58;;
46745;SDS011;32493;50.514;9.678;2024-03-22T06:13:43;43.97;;;18.83;;
46745;SDS011;32493;50.514;9.678;2024-03-22T06:16:12;43.58;;;18.58;;
46745;SDS011;32493;50.514;9.678;2024-03-22T06:24:09;54.03;;;21.38;;
46745;SDS011;32493;50.514;9.678;2024-03-22T06:26:36;36.75;;;16.15;;
46745;SDS011;32493;50.514;9.678;2024-03-22T06:29:22;34.72;;;15.82;;
46745;SDS011;32493;50.514;9.678;2024-03-22T06:31:55;41.22;;;16.90;;
46745;SDS011;32493;50.514;9.678;2024-03-22T06:34:27;46.35;;;18.05;;
46745;SDS011;32493;50.514;9.678;2024-03-22T06:36:58;43.83;;;18.67;;
46745;SDS011;32493;50.514;9.678;2024-03-22T06:39:31;46.90;;;19.17;;
46745;SDS011;32493;50.514;9.678;2024-03-22T06:42:00;46.58;;;19.33;;
46745;SDS011;32493;50.514;9.678;2024-03-22T06:44:34;48.22;;;20.17;;
46745;SDS011;32493;50.514;9.678;2024-03-22T06:47:06;44.33;;;20.50;;
46745;SDS011;32493;50.514;9.678;2024-03-22T06:49:33;46.13;;;20.90;;
46745;SDS011;32493;50.514;9.678;2024-03-22T06:52:02;45.80;;;20.73;;
46745;SDS011;32493;50.514;9.678;2024-03-22T06:54:35;45.25;;;21.27;;
46745;SDS011;32493;50.514;9.678;2024-03-22T06:57:09;45.38;;;20.67;;
46745;SDS011;32493;50.514;9.678;2024-03-22T06:59:44;47.63;;;20.75;;
46745;SDS011;32493;50.514;9.678;2024-03-22T07:02:14;46.88;;;20.95;;
46745;SDS011;32493;50.514;9.678;2024-03-22T07:04:45;44.22;;;20.27;;
46745;SDS011;32493;50.514;9.678;2024-03-22T07:07:13;44.47;;;20.08;;
46745;SDS011;32493;50.514;9.678;2024-03-22T07:09:44;46.58;;;21.10;;
46745;SDS011;32493;50.514;9.678;2024-03-22T07:12:13;45.33;;;21.05;;
46745;SDS011;32493;50.514;9.678;2024-03-22T07:14:43;46.45;;;20.50;;
46745;SDS011;32493;50.514;9.678;2024-03-22T07:17:15;41.08;;;19.52;;
46745;SDS011;32493;50.514;9.678;2024-03-22T07:19:43;41.08;;;20.05;;
46745;SDS011;32493;50.514;9.678;2024-03-22T07:22:14;42.30;;;20.73;;
46745;SDS011;32493;50.514;9.678;2024-03-22T07:24:46;40.40;;;18.95;;
46745;SDS011;32493;50.514;9.678;2024-03-22T07:27:15;45.00;;;20.83;;
46745;SDS011;32493;50.514;9.678;2024-03-22T07:29:45;43.58;;;20.42;;
46745;SDS011;32493;50.514;9.678;2024-03-22T07:32:13;39.60;;;18.75;;
46745;SDS011;32493;50.514;9.678;2024-03-22T07:34:45;39.72;;;20.85;;
46745;SDS011;32493;50.514;9.678;2024-03-22T07:37:11;43.97;;;20.73;;
46745;SDS011;32493;50.514;9.678;2024-03-22T07:39:42;41.95;;;21.08;;
46745;SDS011;32493;50.514;9.678;2024-03-22T07:42:17;41.17;;;20.88;;
46745;SDS011;32493;50.514;9.678;2024-03-22T07:44:46;38.78;;;19.40;;
46745;SDS011;32493;50.514;9.678;2024-03-22T07:47:12;41.90;;;19.45;;
46745;SDS011;32493;50.514;9.678;2024-03-22T07:49:39;40.38;;;19.50;;
46745;SDS011;32493;50.514;9.678;2024-03-22T07:52:07;36.40;;;19.33;;
46745;SDS011;32493;50.514;9.678;2024-03-22T07:54:36;38.47;;;18.63;;
46745;SDS011;32493;50.514;9.678;2024-03-22T07:57:04;36.08;;;18.58;;
46745;SDS011;32493;50.514;9.678;2024-03-22T07:59:33;36.17;;;18.08;;
46745;SDS011;32493;50.514;9.678;2024-03-22T08:01:59;32.90;;;17.45;;
46745;SDS011;32493;50.514;9.678;2024-03-22T08:04:26;36.58;;;16.63;;
46745;SDS011;32493;50.514;9.678;2024-03-22T08:06:52;34.92;;;17.55;;
46745;SDS011;32493;50.514;9.678;2024-03-22T08:09:22;32.22;;;16.48;;
46745;SDS011;32493;50.514;9.678;2024-03-22T08:11:50;34.90;;;17.53;;
46745;SDS011;32493;50.514;9.678;2024-03-22T08:14:22;33.40;;;17.35;;
46745;SDS011;32493;50.514;9.678;2024-03-22T08:16:55;32.38;;;15.82;;
46745;SDS011;32493;50.514;9.678;2024-03-22T08:19:24;33.92;;;17.67;;
46745;SDS011;32493;50.514;9.678;2024-03-22T08:21:53;32.83;;;16.08;;
46745;SDS011;32493;50.514;9.678;2024-03-22T08:24:26;33.92;;;17.17;;
46745;SDS011;32493;50.514;9.678;2024-03-22T08:26:55;33.60;;;16.58;;
46745;SDS011;32493;50.514;9.678;2024-03-22T08:29:24;30.55;;;16.55;;
46745;SDS011;32493;50.514;9.678;2024-03-22T08:31:55;33.78;;;16.42;;
46745;SDS011;32493;50.514;9.678;2024-03-22T08:34:25;32.70;;;15.80;;
46745;SDS011;32493;50.514;9.678;2024-03-22T08:36:54;32.92;;;15.30;;
46745;SDS011;32493;50.514;9.678;2024-03-22T08:39:23;30.65;;;16.95;;
46745;SDS011;32493;50.514;9.678;2024-03-22T08:41:51;32.50;;;16.83;;
46745;SDS011;32493;50.514;9.678;2024-03-22T08:44:18;31.70;;;16.15;;
46745;SDS011;32493;50.514;9.678;2024-03-22T08:49:15;30.95;;;16.63;;
46745;SDS011;32493;50.514;9.678;2024-03-22T08:51:44;27.45;;;14.85;;
46745;SDS011;32493;50.514;9.678;2024-03-22T08:54:12;32.95;;;16.73;;
46745;SDS011;32493;50.514;9.678;2024-03-22T08:56:41;26.42;;;14.43;;
46745;SDS011;32493;50.514;9.678;2024-03-22T08:59:09;28.48;;;14.27;;
46745;SDS011;32493;50.514;9.678;2024-03-22T09:01:42;29.27;;;15.50;;
46745;SDS011;32493;50.514;9.678;2024-03-22T09:04:10;27.73;;;16.48;;
46745;SDS011;32493;50.514;9.678;2024-03-22T09:06:45;29.85;;;15.02;;
46745;SDS011;32493;50.514;9.678;2024-03-22T09:09:16;27.23;;;15.32;;
46745;SDS011;32493;50.514;9.678;2024-03-22T09:11:46;23.75;;;13.27;;
46745;SDS011;32493;50.514;9.678;2024-03-22T09:14:15;28.00;;;14.02;;
46745;SDS011;32493;50.514;9.678;2024-03-22T09:16:44;26.92;;;13.75;;
46745;SDS011;32493;50.514;9.678;2024-03-22T09:19:13;24.48;;;13.10;;
46745;SDS011;32493;50.514;9.678;2024-03-22T09:21:42;27.58;;;14.27;;
46745;SDS011;32493;50.514;9.678;2024-03-22T09:24:10;23.02;;;12.70;;
46745;SDS011;32493;50.514;9.678;2024-03-22T09:26:39;22.15;;;12.73;;
46745;SDS011;32493;50.514;9.678;2024-03-22T09:29:10;27.42;;;13.23;;
46745;SDS011;32493;50.514;9.678;2024-03-22T09:31:41;23.35;;;11.98;;
46745;SDS011;32493;50.514;9.678;2024-03-22T09:34:07;22.30;;;12.43;;
46745;SDS011;32493;50.514;9.678;2024-03-22T09:36:37;23.17;;;12.00;;
46745;SDS011;32493;50.514;9.678;2024-03-22T09:39:05;24.20;;;12.70;;
46745;SDS011;32493;50.514;9.678;2024-03-22T09:41:32;20.42;;;11.80;;
46745;SDS011;32493;50.514;9.678;2024-03-22T09:44:05;21.33;;;11.73;;
46745;SDS011;32493;50.514;9.678;2024-03-22T09:46:31;23.38;;;11.70;;
46745;SDS011;32493;50.514;9.678;2024-03-22T09:49:00;21.30;;;12.00;;
46745;SDS011;32493;50.514;9.678;2024-03-22T09:51:29;22.17;;;11.85;;
46745;SDS011;32493;50.514;9.678;2024-03-22T09:54:03;19.33;;;10.38;;
46745;SDS011;32493;50.514;9.678;2024-03-22T09:56:31;20.85;;;11.50;;
46745;SDS011;32493;50.514;9.678;2024-03-22T09:58:58;19.38;;;11.18;;
46745;SDS011;32493;50.514;9.678;2024-03-22T10:01:27;19.27;;;10.55;;
46745;SDS011;32493;50.514;9.678;2024-03-22T10:03:54;19.05;;;10.48;;
46745;SDS011;32493;50.514;9.678;2024-03-22T10:06:22;20.98;;;10.65;;
46745;SDS011;32493;50.514;9.678;2024-03-22T10:08:51;18.80;;;10.27;;
46745;SDS011;32493;50.514;9.678;2024-03-22T10:11:20;17.67;;;9.88;;
46745;SDS011;32493;50.514;9.678;2024-03-22T10:13:48;19.92;;;9.38;;
46745;SDS011;32493;50.514;9.678;2024-03-22T10:16:17;17.35;;;9.75;;
46745;SDS011;32493;50.514;9.678;2024-03-22T10:18:44;16.40;;;9.93;;
46745;SDS011;32493;50.514;9.678;2024-03-22T10:21:16;17.27;;;10.60;;
46745;SDS011;32493;50.514;9.678;2024-03-22T10:23:46;16.25;;;9.90;;
46745;SDS011;32493;50.514;9.678;2024-03-22T10:26:16;16.58;;;9.63;;
46745;SDS011;32493;50.514;9.678;2024-03-22T10:31:17;13.98;;;8.63;;
46745;SDS011;32493;50.514;9.678;2024-03-22T10:33:48;15.57;;;9.93;;
46745;SDS011;32493;50.514;9.678;2024-03-22T10:36:16;15.15;;;9.27;;
46745;SDS011;32493;50.514;9.678;2024-03-22T10:38:43;17.50;;;8.88;;
46745;SDS011;32493;50.514;9.678;2024-03-22T10:41:13;16.70;;;9.35;;
46745;SDS011;32493;50.514;9.678;2024-03-22T10:43:41;14.88;;;8.35;;
46745;SDS011;32493;50.514;9.678;2024-03-22T10:46:15;14.27;;;8.80;;
46745;SDS011;32493;50.514;9.678;2024-03-22T10:48:43;15.18;;;8.88;;
46745;SDS011;32493;50.514;9.678;2024-03-22T10:51:11;13.88;;;8.57;;
46745;SDS011;32493;50.514;9.678;2024-03-22T10:53:40;15.60;;;9.23;;
46745;SDS011;32493;50.514;9.678;2024-03-22T10:56:08;13.75;;;8.85;;
46745;SDS011;32493;50.514;9.678;2024-03-22T10:58:39;15.13;;;8.77;;
46745;SDS011;32493;50.514;9.678;2024-03-22T11:01:05;13.68;;;8.00;;
46745;SDS011;32493;50.514;9.678;2024-03-22T11:03:40;14.48;;;8.45;;
46745;SDS011;32493;50.514;9.678;2024-03-22T11:06:07;12.50;;;8.18;;
46745;SDS011;32493;50.514;9.678;2024-03-22T11:08:35;13.38;;;7.88;;
46745;SDS011;32493;50.514;9.678;2024-03-22T11:11:09;13.82;;;7.78;;
46745;SDS011;32493;50.514;9.678;2024-03-22T11:13:38;13.35;;;7.38;;
46745;SDS011;32493;50.514;9.678;2024-03-22T11:16:06;14.80;;;8.30;;
46745;SDS011;32493;50.514;9.678;2024-03-22T11:18:32;14.52;;;8.50;;
46745;SDS011;32493;50.514;9.678;2024-03-22T11:21:04;12.10;;;7.88;;
46745;SDS011;32493;50.514;9.678;2024-03-22T11:23:31;10.63;;;6.80;;
46745;SDS011;32493;50.514;9.678;2024-03-22T11:26:02;11.75;;;7.30;;
46745;SDS011;32493;50.514;9.678;2024-03-22T11:28:31;11.32;;;7.53;;
46745;SDS011;32493;50.514;9.678;2024-03-22T11:30:59;11.98;;;7.13;;
46745;SDS011;32493;50.514;9.678;2024-03-22T11:33:26;17.27;;;8.83;;
46745;SDS011;32493;50.514;9.678;2024-03-22T11:35:52;16.58;;;8.70;;
46745;SDS011;32493;50.514;9.678;2024-03-22T11:38:23;12.48;;;7.35;;
46745;SDS011;32493;50.514;9.678;2024-03-22T11:40:53;14.02;;;8.32;;
46745;SDS011;32493;50.514;9.678;2024-03-22T11:43:24;14.57;;;8.20;;
46745;SDS011;32493;50.514;9.678;2024-03-22T11:45:53;13.63;;;7.50;;
46745;SDS011;32493;50.514;9.678;2024-03-22T11:48:21;13.35;;;8.05;;
46745;SDS011;32493;50.514;9.678;2024-03-22T11:50:49;12.45;;;6.65;;
46745;SDS011;32493;50.514;9.678;2024-03-22T11:53:16;12.80;;;7.90;;
46745;SDS011;32493;50.514;9.678;2024-03-22T11:55:45;11.00;;;8.15;;
46745;SDS011;32493;50.514;9.678;2024-03-22T11:58:14;12.40;;;8.23;;
46745;SDS011;32493;50.514;9.678;2024-03-22T12:00:46;12.57;;;8.70;;
46745;SDS011;32493;50.514;9.678;2024-03-22T12:03:12;13.77;;;8.02;;
46745;SDS011;32493;50.514;9.678;2024-03-22T12:05:41;14.88;;;8.38;;
46745;SDS011;32493;50.514;9.678;2024-03-22T12:08:10;14.00;;;9.50;;
46745;SDS011;32493;50.514;9.678;2024-03-22T12:10:38;11.70;;;8.57;;
46745;SDS011;32493;50.514;9.678;2024-03-22T12:13:10;13.43;;;9.05;;
46745;SDS011;32493;50.514;9.678;2024-03-22T12:15:39;14.00;;;9.02;;
46745;SDS011;32493;50.514;9.678;2024-03-22T12:18:06;11.90;;;8.13;;
46745;SDS011;32493;50.514;9.678;2024-03-22T12:20:34;15.13;;;9.07;;
46745;SDS011;32493;50.514;9.678;2024-03-22T12:23:00;13.43;;;9.18;;
46745;SDS011;32493;50.514;9.678;2024-03-22T12:25:29;15.93;;;9.30;;
46745;SDS011;32493;50.514;9.678;2024-03-22T12:27:56;15.40;;;8.40;;
46745;SDS011;32493;50.514;9.678;2024-03-22T12:30:27;16.35;;;8.90;;
46745;SDS011;32493;50.514;9.678;2024-03-22T12:32:57;15.60;;;9.45;;
46745;SDS011;32493;50.514;9.678;2024-03-22T12:35:23;15.95;;;9.77;;
46745;SDS011;32493;50.514;9.678;2024-03-22T12:37:51;17.10;;;9.38;;
46745;SDS011;32493;50.514;9.678;2024-03-22T12:40:20;14.73;;;8.88;;
46745;SDS011;32493;50.514;9.678;2024-03-22T12:42:47;15.73;;;9.98;;
46745;SDS011;32493;50.514;9.678;2024-03-22T12:45:16;14.60;;;8.90;;
46745;SDS011;32493;50.514;9.678;2024-03-22T12:47:45;15.43;;;10.02;;
46745;SDS011;32493;50.514;9.678;2024-03-22T12:50:13;15.68;;;9.38;;
46745;SDS011;32493;50.514;9.678;2024-03-22T12:52:40;16.88;;;9.70;;
46745;SDS011;32493;50.514;9.678;2024-03-22T12:55:09;15.55;;;10.18;;
46745;SDS011;32493;50.514;9.678;2024-03-22T12:57:37;14.07;;;8.35;;
46745;SDS011;32493;50.514;9.678;2024-03-22T13:00:05;9.68;;;5.55;;
46745;SDS011;32493;50.514;9.678;2024-03-22T13:02:32;14.75;;;7.97;;
46745;SDS011;32493;50.514;9.678;2024-03-22T13:05:05;13.55;;;7.43;;
46745;SDS011;32493;50.514;9.678;2024-03-22T13:07:34;17.15;;;8.32;;
46745;SDS011;32493;50.514;9.678;2024-03-22T13:10:03;12.57;;;7.72;;
46745;SDS011;32493;50.514;9.678;2024-03-22T13:12:33;11.45;;;8.90;;
46745;SDS011;32493;50.514;9.678;2024-03-22T13:15:00;13.95;;;8.02;;
46745;SDS011;32493;50.514;9.678;2024-03-22T13:17:30;11.45;;;8.32;;
46745;SDS011;32493;50.514;9.678;2024-03-22T13:19:58;16.13;;;7.93;;
46745;SDS011;32493;50.514;9.678;2024-03-22T13:22:34;12.45;;;7.32;;
46745;SDS011;32493;50.514;9.678;2024-03-22T13:25:05;14.05;;;8.98;;
46745;SDS011;32493;50.514;9.678;2024-03-22T13:27:31;15.25;;;9.80;;
46745;SDS011;32493;50.514;9.678;2024-03-22T13:30:01;16.08;;;9.90;;
46745;SDS011;32493;50.514;9.678;2024-03-22T13:32:30;15.40;;;9.50;;
46745;SDS011;32493;50.514;9.678;2024-03-22T13:35:00;15.00;;;8.55;;
46745;SDS011;32493;50.514;9.678;2024-03-22T13:37:26;14.88;;;9.13;;
46745;SDS011;32493;50.514;9.678;2024-03-22T13:39:55;13.70;;;9.27;;
46745;SDS011;32493;50.514;9.678;2024-03-22T13:42:22;13.55;;;9.23;;
46745;SDS011;32493;50.514;9.678;2024-03-22T13:47:18;11.98;;;8.75;;
46745;SDS011;32493;50.514;9.678;2024-03-22T13:49:46;12.50;;;8.30;;
46745;SDS011;32493;50.514;9.678;2024-03-22T13:52:14;13.93;;;9.18;;
46745;SDS011;32493;50.514;9.678;2024-03-22T13:54:40;12.70;;;8.57;;
46745;SDS011;32493;50.514;9.678;2024-03-22T13:57:11;14.57;;;8.70;;
46745;SDS011;32493;50.514;9.678;2024-03-22T13:59:41;14.13;;;8.32;;
46745;SDS011;32493;50.514;9.678;2024-03-22T14:02:12;15.32;;;8.73;;
46745;SDS011;32493;50.514;9.678;2024-03-22T14:04:42;16.13;;;8.98;;
46745;SDS011;32493;50.514;9.678;2024-03-22T14:07:10;11.57;;;7.80;;
46745;SDS011;32493;50.514;9.678;2024-03-22T14:09:39;13.50;;;7.65;;
46745;SDS011;32493;50.514;9.678;2024-03-22T14:12:08;11.07;;;7.22;;
46745;SDS011;32493;50.514;9.678;2024-03-22T14:14:39;12.60;;;7.40;;
46745;SDS011;32493;50.514;9.678;2024-03-22T14:17:08;12.30;;;8.02;;
46745;SDS011;32493;50.514;9.678;2024-03-22T14:19:34;13.43;;;7.15;;
46745;SDS011;32493;50.514;9.678;2024-03-22T14:22:03;12.25;;;7.65;;
46745;SDS011;32493;50.514;9.678;2024-03-22T14:24:31;13.98;;;7.90;;
46745;SDS011;32493;50.514;9.678;2024-03-22T14:27:00;13.73;;;6.95;;
46745;SDS011;32493;50.514;9.678;2024-03-22T14:29:29;12.80;;;7.28;;
46745;SDS011;32493;50.514;9.678;2024-03-22T14:31:56;13.73;;;7.15;;
46745;SDS011;32493;50.514;9.678;2024-03-22T14:36:51;12.48;;;7.57;;
46745;SDS011;32493;50.514;9.678;2024-03-22T14:39:19;15.07;;;7.40;;
46745;SDS011;32493;50.514;9.678;2024-03-22T14:41:45;15.95;;;9.32;;
46745;SDS011;32493;50.514;9.678;2024-03-22T14:44:14;14.73;;;8.50;;
46745;SDS011;32493;50.514;9.678;2024-03-22T14:46:46;12.77;;;7.30;;
46745;SDS011;32493;50.514;9.678;2024-03-22T14:49:16;12.07;;;6.88;;
46745;SDS011;32493;50.514;9.678;2024-03-22T14:51:47;12.43;;;7.72;;
46745;SDS011;32493;50.514;9.678;2024-03-22T14:54:17;11.32;;;7.40;;
46745;SDS011;32493;50.514;9.678;2024-03-22T14:56:45;12.68;;;7.90;;
46745;SDS011;32493;50.514;9.678;2024-03-22T14:59:15;13.18;;;8.27;;
46745;SDS011;32493;50.514;9.678;2024-03-22T15:01:46;13.18;;;7.68;;
46745;SDS011;32493;50.514;9.678;2024-03-22T15:04:12;12.88;;;7.80;;
46745;SDS011;32493;50.514;9.678;2024-03-22T15:06:39;10.93;;;7.60;;